createdAt,value
2023-02-24T00:02:15.256Z,97886.50
2023-02-24T00:04:42.149Z,97885.66
2023-02-24T00:07:10.738Z,97879.78
2023-02-24T00:09:38.056Z,97834.22
2023-02-24T00:12:07.869Z,97881.09
2023-02-24T00:14:37.765Z,97878.19
2023-02-24T00:17:05.570Z,97883.66
2023-02-24T00:19:32.202Z,97880.75
2023-02-24T00:21:58.948Z,97881.66
2023-02-24T00:24:26.204Z,97876.41
2023-02-24T00:26:57.939Z,97884.38
2023-02-24T00:29:25.630Z,97874.19
2023-02-24T00:31:57.551Z,97868.84
2023-02-24T00:34:24.852Z,97861.78
2023-02-24T00:36:51.505Z,97863.94
2023-02-24T00:39:18.144Z,97863.28
2023-02-24T00:41:45.229Z,97810.69
2023-02-24T00:44:14.265Z,97859.84
2023-02-24T00:46:44.208Z,97828.63
2023-02-24T00:49:14.995Z,97836.16
2023-02-24T00:51:44.241Z,97790.06
2023-02-24T00:54:11.662Z,97838.72
2023-02-24T00:56:38.352Z,97799.50
2023-02-24T00:59:05.095Z,97830.47
2023-02-24T01:01:33.374Z,97824.47
2023-02-24T01:04:01.851Z,97811.56
2023-02-24T01:06:29.191Z,97815.34
2023-02-24T01:08:57.329Z,97825.16
2023-02-24T01:11:26.908Z,97816.66
2023-02-24T01:13:53.935Z,97803.03
2023-02-24T01:16:20.641Z,97818.28
2023-02-24T01:18:47.987Z,97815.09
2023-02-24T01:21:16.957Z,97810.59
2023-02-24T01:23:48.586Z,97817.06
2023-02-24T01:26:16.543Z,97812.72
2023-02-24T01:28:43.927Z,97792.72
2023-02-24T01:31:10.694Z,97801.94
2023-02-24T01:33:37.310Z,97788.66
2023-02-24T01:36:11.806Z,97785.66
2023-02-24T01:38:39.130Z,97730.25
2023-02-24T01:41:06.207Z,97780.31
2023-02-24T01:43:33.574Z,97776.91
2023-02-24T01:46:00.172Z,97771.66
2023-02-24T01:48:27.763Z,97772.63
2023-02-24T01:50:54.525Z,97760.22
2023-02-24T01:53:21.184Z,97773.06
2023-02-24T01:55:50.291Z,97766.94
2023-02-24T01:58:28.773Z,97765.84
2023-02-24T02:00:56.193Z,97753.97
2023-02-24T02:03:29.763Z,97766.56
2023-02-24T02:06:04.800Z,97768.47
2023-02-24T02:08:32.750Z,97751.81
2023-02-24T02:11:04.426Z,97733.81
2023-02-24T02:13:35.353Z,97751.00
2023-02-24T02:16:12.189Z,97750.53
2023-02-24T02:18:52.348Z,97743.69
2023-02-24T02:21:28.211Z,97748.13
2023-02-24T02:24:00.669Z,97738.88
2023-02-24T02:26:45.729Z,97738.00
2023-02-24T02:29:45.465Z,97726.91
2023-02-24T02:32:30.698Z,97724.03
2023-02-24T02:35:01.449Z,97727.56
2023-02-24T02:37:34.166Z,97718.63
2023-02-24T02:40:10.712Z,97721.41
2023-02-24T02:42:49.086Z,97716.06
2023-02-24T02:45:24.650Z,97711.91
2023-02-24T02:48:06.734Z,97698.50
2023-02-24T02:50:48.404Z,97705.50
2023-02-24T02:53:24.312Z,97700.69
2023-02-24T02:56:03.086Z,97692.22
2023-02-24T02:58:34.191Z,97691.09
2023-02-24T03:01:03.029Z,97692.81
2023-02-24T03:03:38.833Z,97644.16
2023-02-24T03:06:16.803Z,97691.81
2023-02-24T03:08:53.216Z,97685.75
2023-02-24T03:11:22.404Z,97688.75
2023-02-24T03:13:52.662Z,97684.84
2023-02-24T03:16:22.264Z,97685.13
2023-02-24T03:18:58.258Z,97680.94
2023-02-24T03:21:37.026Z,97674.72
2023-02-24T03:24:04.800Z,97673.56
2023-02-24T03:26:33.308Z,97679.81
2023-02-24T03:29:21.327Z,97660.00
2023-02-24T03:32:08.762Z,97669.22
2023-02-24T03:34:53.801Z,97660.53
2023-02-24T03:37:21.189Z,97661.09
2023-02-24T03:39:47.882Z,97631.88
2023-02-24T03:42:21.917Z,97658.19
2023-02-24T03:44:49.552Z,97651.34
2023-02-24T03:47:17.893Z,97647.06
2023-02-24T03:49:44.588Z,97650.50
2023-02-24T03:52:32.590Z,97652.03
2023-02-24T03:55:18.518Z,97641.91
2023-02-24T03:58:07.215Z,97646.53
2023-02-24T04:00:55.654Z,97640.28
2023-02-24T04:03:28.409Z,97651.22
2023-02-24T04:06:18.390Z,97583.25
2023-02-24T04:09:00.972Z,97644.19
2023-02-24T04:11:36.712Z,97626.00
2023-02-24T04:14:16.532Z,97638.13
2023-02-24T04:16:57.439Z,97631.59
2023-02-24T04:19:27.594Z,97618.94
2023-02-24T04:21:56.016Z,97630.44
2023-02-24T04:24:30.062Z,97636.69
2023-02-24T04:27:00.311Z,97624.66
2023-02-24T04:29:32.232Z,97619.84
2023-02-24T04:32:05.183Z,97619.31
2023-02-24T04:34:32.388Z,97622.81
2023-02-24T04:37:00.350Z,97624.00
2023-02-24T04:39:27.230Z,97618.03
2023-02-24T04:41:56.068Z,97597.03
2023-02-24T04:44:23.350Z,97605.53
2023-02-24T04:46:51.236Z,97532.66
2023-02-24T04:49:19.740Z,97602.47
2023-02-24T04:51:46.901Z,97583.16
2023-02-24T04:54:16.522Z,97600.75
2023-02-24T04:56:44.458Z,97589.31
2023-02-24T04:59:11.735Z,97585.28
2023-02-24T05:01:38.336Z,97592.69
2023-02-24T05:04:08.741Z,97590.03
2023-02-24T05:06:36.364Z,97595.19
2023-02-24T05:09:03.144Z,97590.88
2023-02-24T05:11:29.725Z,97582.00
2023-02-24T05:13:56.690Z,97571.06
2023-02-24T05:16:23.947Z,97583.69
2023-02-24T05:18:50.783Z,97558.03
2023-02-24T05:21:17.854Z,97583.50
2023-02-24T05:23:46.490Z,97585.69
2023-02-24T05:26:16.744Z,97585.56
2023-02-24T05:28:45.942Z,97564.53
2023-02-24T05:31:24.374Z,97558.34
2023-02-24T05:33:54.005Z,97566.91
2023-02-24T05:36:21.963Z,97565.19
2023-02-24T05:38:51.112Z,97568.06
2023-02-24T05:41:19.084Z,97567.47
2023-02-24T05:43:51.601Z,97557.19
2023-02-24T05:46:28.913Z,97555.03
2023-02-24T05:48:57.242Z,97572.03
2023-02-24T05:51:29.841Z,97575.47
2023-02-24T05:53:58.711Z,97572.91
2023-02-24T05:56:25.309Z,97597.69
2023-02-24T05:58:54.485Z,97570.63
2023-02-24T06:01:21.581Z,97568.22
2023-02-24T06:03:48.485Z,97569.31
2023-02-24T06:06:17.956Z,97569.88
2023-02-24T06:08:44.786Z,97567.56
2023-02-24T06:11:11.903Z,97565.56
2023-02-24T06:13:38.902Z,97560.88
2023-02-24T06:16:06.727Z,97567.94
2023-02-24T06:18:33.505Z,97556.25
2023-02-24T06:21:03.463Z,97568.25
2023-02-24T06:23:30.190Z,97561.06
2023-02-24T06:26:02.096Z,97552.06
2023-02-24T06:28:28.789Z,97561.47
2023-02-24T06:30:55.475Z,97555.34
2023-02-24T06:33:23.003Z,97534.59
2023-02-24T06:35:49.853Z,97556.41
2023-02-24T06:38:16.552Z,97546.22
2023-02-24T06:40:43.120Z,97559.97
2023-02-24T06:43:09.908Z,97557.09
2023-02-24T06:45:36.719Z,97556.75
2023-02-24T06:48:04.214Z,97530.09
2023-02-24T06:50:31.051Z,97557.97
2023-02-24T06:52:57.770Z,97551.84
2023-02-24T06:55:24.368Z,97544.91
2023-02-24T06:57:57.986Z,97538.53
2023-02-24T07:00:30.214Z,97536.25
2023-02-24T07:02:56.891Z,97537.16
2023-02-24T07:05:23.516Z,97524.81
2023-02-24T07:07:50.101Z,97537.94
2023-02-24T07:10:17.012Z,97481.03
2023-02-24T07:12:43.758Z,97539.06
2023-02-24T07:15:10.521Z,97521.28
2023-02-24T07:17:37.150Z,97535.75
2023-02-24T07:20:04.096Z,97526.91
2023-02-24T07:22:30.784Z,97489.13
2023-02-24T07:24:57.397Z,97525.53
2023-02-24T07:27:24.158Z,97519.78
2023-02-24T07:29:53.322Z,97522.09
2023-02-24T07:32:21.595Z,97512.72
2023-02-24T07:34:48.377Z,97518.03
2023-02-24T07:37:14.999Z,97513.38
2023-02-24T07:39:41.562Z,97501.88
2023-02-24T07:42:10.034Z,97506.03
2023-02-24T07:44:44.270Z,97429.88
2023-02-24T07:47:11.450Z,97494.72
2023-02-24T07:49:39.691Z,97484.03
2023-02-24T07:52:06.488Z,97490.94
2023-02-24T07:54:33.217Z,97484.38
2023-02-24T07:57:01.056Z,97483.22
2023-02-24T07:59:33.188Z,97472.19
2023-02-24T08:02:01.025Z,97473.50
2023-02-24T08:04:30.677Z,97413.84
2023-02-24T08:06:57.860Z,97449.22
2023-02-24T08:09:26.969Z,97434.69
2023-02-24T08:11:55.552Z,97447.94
2023-02-24T08:14:27.958Z,97470.75
2023-02-24T08:16:56.315Z,97479.25
2023-02-24T08:19:22.939Z,97451.47
2023-02-24T08:21:52.870Z,97425.41
2023-02-24T08:24:24.300Z,97447.06
2023-02-24T08:26:53.823Z,97447.66
2023-02-24T08:29:20.522Z,97447.66
2023-02-24T08:31:47.460Z,97444.03
2023-02-24T08:34:14.321Z,97442.91
2023-02-24T08:36:41.007Z,97433.56
2023-02-24T08:39:08.002Z,97424.50
2023-02-24T08:41:34.877Z,97423.78
2023-02-24T08:44:01.533Z,97399.22
2023-02-24T08:46:28.260Z,97408.78
2023-02-24T08:48:57.659Z,97413.56
2023-02-24T08:51:28.394Z,97408.41
2023-02-24T08:54:00.662Z,97353.19
2023-02-24T08:56:30.436Z,97412.50
2023-02-24T08:59:00.021Z,97395.91
2023-02-24T09:01:33.112Z,97398.97
2023-02-24T09:04:01.571Z,97397.09
2023-02-24T09:06:37.992Z,97384.31
2023-02-24T09:09:05.346Z,97354.31
2023-02-24T09:11:31.931Z,97377.53
2023-02-24T09:13:58.712Z,97324.84
2023-02-24T09:16:25.457Z,97335.72
2023-02-24T09:18:52.281Z,97360.56
2023-02-24T09:21:19.183Z,97359.88
2023-02-24T09:23:46.187Z,97359.78
2023-02-24T09:26:15.850Z,97350.59
2023-02-24T09:28:42.655Z,97320.75
2023-02-24T09:31:09.409Z,97332.78
2023-02-24T09:33:38.280Z,97317.28
2023-02-24T09:36:11.083Z,97323.56
2023-02-24T09:38:38.778Z,97318.69
2023-02-24T09:41:23.712Z,97308.53
2023-02-24T09:43:50.458Z,97308.34
2023-02-24T09:46:17.477Z,97310.56
2023-02-24T09:49:17.833Z,97296.31
2023-02-24T09:51:45.371Z,97245.63
2023-02-24T09:54:18.932Z,97291.50
2023-02-24T09:57:01.827Z,97268.81
2023-02-24T09:59:36.422Z,97251.59
2023-02-24T10:02:24.336Z,97276.53
2023-02-24T10:05:07.358Z,97257.44
2023-02-24T10:07:40.682Z,97263.28
2023-02-24T10:10:31.759Z,97242.66
2023-02-24T10:24:40.725Z,97238.81
2023-02-24T10:27:26.042Z,97203.03
2023-02-24T10:30:08.109Z,97239.50
2023-02-24T10:32:37.684Z,97233.06
2023-02-24T10:35:04.566Z,97227.75
2023-02-24T10:37:31.248Z,97220.38
2023-02-24T10:40:00.250Z,97200.88
2023-02-24T10:42:30.881Z,97222.97
2023-02-24T10:45:24.652Z,97218.03
2023-02-24T10:47:57.011Z,97214.56
2023-02-24T10:50:27.451Z,97207.50
2023-02-24T10:53:03.087Z,97146.78
2023-02-24T10:55:47.810Z,97205.28
2023-02-24T10:58:35.482Z,97202.03
2023-02-24T11:01:17.054Z,97190.81
2023-02-24T11:03:54.225Z,97125.75
2023-02-24T11:06:22.755Z,97180.38
2023-02-24T11:08:57.467Z,97172.66
2023-02-24T11:11:34.693Z,97111.72
2023-02-24T11:14:03.075Z,97164.31
2023-02-24T11:16:39.833Z,97157.38
2023-02-24T11:19:06.802Z,97133.53
2023-02-24T11:21:33.692Z,97147.19
2023-02-24T11:24:01.110Z,97137.50
2023-02-24T11:26:40.509Z,97139.72
2023-02-24T11:29:26.585Z,97138.66
2023-02-24T11:31:59.379Z,97136.78
2023-02-24T11:34:38.594Z,97093.00
2023-02-24T11:37:34.920Z,97126.66
2023-02-24T11:40:13.858Z,97117.94
2023-02-24T11:42:46.401Z,97114.03
2023-02-24T11:45:27.134Z,97108.50
2023-02-24T11:48:04.318Z,97035.81
2023-02-24T11:50:37.234Z,97090.78
2023-02-24T11:53:13.619Z,97093.19
2023-02-24T11:55:45.314Z,97087.88
2023-02-24T11:58:23.086Z,97082.88
2023-02-24T12:01:14.075Z,97072.63
2023-02-24T12:04:01.205Z,97069.75
2023-02-24T12:06:34.410Z,97069.59
2023-02-24T12:09:11.997Z,97045.28
2023-02-24T12:11:59.990Z,97053.72
2023-02-24T12:14:47.465Z,97019.94
2023-02-24T12:17:22.154Z,97048.53
2023-02-24T12:19:58.255Z,97039.47
2023-02-24T12:22:32.311Z,97028.47
2023-02-24T12:24:58.990Z,97011.66
2023-02-24T12:27:46.154Z,97029.34
2023-02-24T12:30:44.669Z,97033.88
2023-02-24T12:33:37.868Z,97036.50
2023-02-24T12:36:22.576Z,97034.53
2023-02-24T12:39:13.427Z,97030.09
2023-02-24T12:41:59.990Z,97018.41
2023-02-24T12:44:52.491Z,97025.53
2023-02-24T12:47:37.615Z,97024.69
2023-02-24T12:50:23.439Z,97014.88
2023-02-24T12:52:57.117Z,97016.28
2023-02-24T12:55:34.178Z,97011.00
2023-02-24T12:58:16.014Z,97018.50
2023-02-24T13:01:09.949Z,97019.66
2023-02-24T13:03:48.703Z,97023.41
2023-02-24T13:06:25.075Z,97025.47
2023-02-24T13:09:03.465Z,97024.97
2023-02-24T13:11:48.545Z,97019.91
2023-02-24T13:14:30.452Z,97008.13
2023-02-24T13:17:24.587Z,97025.13
2023-02-24T13:19:52.479Z,96974.09
2023-02-24T13:22:20.841Z,97018.91
2023-02-24T13:25:00.169Z,97016.41
2023-02-24T13:27:38.970Z,96785.75
2023-02-24T13:30:11.920Z,97026.47
2023-02-24T13:32:42.626Z,97012.44
2023-02-24T13:35:15.554Z,97007.81
2023-02-24T13:37:44.924Z,97011.09
2023-02-24T13:40:21.085Z,97007.81
2023-02-24T13:42:57.039Z,97009.41
2023-02-24T13:45:30.586Z,97006.34
2023-02-24T13:48:15.711Z,97003.09
2023-02-24T13:51:01.775Z,97005.81
2023-02-24T13:54:02.743Z,97007.72
2023-02-24T13:56:32.566Z,97003.44
2023-02-24T13:59:09.582Z,96996.94
2023-02-24T14:01:49.468Z,96998.06
2023-02-24T14:04:29.792Z,97001.19
2023-02-24T14:07:02.312Z,96976.94
2023-02-24T14:09:39.856Z,96983.69
2023-02-24T14:12:14.738Z,96988.56
2023-02-24T14:14:44.343Z,96985.22
2023-02-24T14:17:40.168Z,96983.22
2023-02-24T14:20:09.953Z,96971.78
2023-02-24T14:22:45.477Z,96974.25
2023-02-24T14:25:13.164Z,96977.47
2023-02-24T14:27:40.117Z,96967.13
2023-02-24T14:30:08.350Z,96949.16
2023-02-24T14:32:35.329Z,96942.22
2023-02-24T14:35:02.110Z,96960.44
2023-02-24T14:37:31.724Z,96955.81
2023-02-24T14:40:00.369Z,96957.56
2023-02-24T14:42:27.762Z,96947.03
2023-02-24T14:44:57.689Z,96941.53
2023-02-24T14:47:27.095Z,96944.94
2023-02-24T14:49:55.099Z,96936.66
2023-02-24T14:52:33.853Z,96944.84
2023-02-24T14:55:22.900Z,96938.34
2023-02-24T14:58:00.782Z,96938.31
2023-02-24T15:00:32.544Z,96929.50
2023-02-24T15:03:41.060Z,96925.22
2023-02-24T15:06:16.097Z,96917.38
2023-02-24T15:08:50.800Z,96917.03
2023-02-24T15:11:17.461Z,96918.72
2023-02-24T15:14:07.161Z,96911.94
2023-02-24T15:16:41.514Z,96909.78
2023-02-24T15:19:36.230Z,96901.13
2023-02-24T15:22:26.691Z,96902.91
2023-02-24T15:25:10.996Z,96896.91
2023-02-24T15:27:37.794Z,96897.88
2023-02-24T15:30:24.886Z,96895.16
2023-02-24T15:33:04.606Z,96829.75
2023-02-24T15:35:31.679Z,96876.66
2023-02-24T15:38:01.565Z,96854.31
2023-02-24T15:40:29.803Z,96878.00
2023-02-24T15:43:09.962Z,96868.19
2023-02-24T15:45:39.182Z,96864.84
2023-02-24T15:48:23.068Z,96868.53
2023-02-24T15:50:49.873Z,96852.34
2023-02-24T15:53:16.972Z,96837.78
2023-02-24T15:55:44.671Z,96862.97
2023-02-24T15:58:16.522Z,96799.03
2023-02-24T16:00:43.563Z,96853.53
2023-02-24T16:03:10.243Z,96846.53
2023-02-24T16:05:38.695Z,96855.66
2023-02-24T16:08:05.455Z,96831.78
2023-02-24T16:10:32.322Z,96841.56
2023-02-24T16:13:02.379Z,96843.84
2023-02-24T16:15:35.500Z,96846.56
2023-02-24T16:18:02.670Z,96842.63
2023-02-24T16:20:30.767Z,96844.91
2023-02-24T16:22:59.607Z,96846.91
2023-02-24T16:25:27.439Z,96847.53
2023-02-24T16:27:54.829Z,96772.72
2023-02-24T16:30:22.930Z,96845.19
2023-02-24T16:32:50.130Z,96827.38
2023-02-24T16:35:16.926Z,96798.28
2023-02-24T16:37:46.297Z,96829.72
2023-02-24T16:40:19.596Z,96844.00
2023-02-24T16:42:48.182Z,96846.41
2023-02-24T16:45:14.914Z,96771.25
2023-02-24T16:47:43.532Z,96786.22
2023-02-24T16:50:24.954Z,96830.09
2023-02-24T16:52:51.895Z,96837.66
2023-02-24T16:55:18.971Z,96838.50
2023-02-24T16:57:45.965Z,96801.00
2023-02-24T17:00:14.863Z,96843.59
2023-02-24T17:02:43.913Z,96831.50
2023-02-24T17:05:19.610Z,96833.78
2023-02-24T17:07:49.319Z,96842.00
2023-02-24T17:10:17.516Z,96774.41
2023-02-24T17:12:45.077Z,96832.38
2023-02-24T17:15:17.182Z,96821.81
2023-02-24T17:17:44.110Z,96825.81
2023-02-24T17:20:20.445Z,96821.94
2023-02-24T17:22:47.607Z,96822.75
2023-02-24T17:25:16.447Z,96817.81
2023-02-24T17:27:43.314Z,96818.16
2023-02-24T17:30:15.725Z,96810.50
2023-02-24T17:32:42.480Z,96802.69
2023-02-24T17:35:09.693Z,96789.53
2023-02-24T17:37:36.537Z,96800.50
2023-02-24T17:40:06.418Z,96781.19
2023-02-24T17:42:33.803Z,96804.66
2023-02-24T17:45:00.591Z,96787.66
2023-02-24T17:47:27.880Z,96734.50
2023-02-24T17:49:54.540Z,96802.00
2023-02-24T17:52:21.337Z,96765.25
2023-02-24T17:54:47.922Z,96799.72
2023-02-24T17:57:14.903Z,96774.31
2023-02-24T17:59:45.279Z,96755.66
2023-02-24T18:02:13.475Z,96764.88
2023-02-24T18:04:40.172Z,96696.06
2023-02-24T18:07:08.077Z,96700.31
2023-02-24T18:09:34.711Z,96706.00
2023-02-24T18:12:01.580Z,96766.03
2023-02-24T18:14:28.376Z,96768.63
2023-02-24T18:16:55.120Z,96767.66
2023-02-24T18:19:21.750Z,96770.31
2023-02-24T18:21:48.499Z,96769.00
2023-02-24T18:24:15.101Z,96718.94
2023-02-24T18:26:41.879Z,96757.50
2023-02-24T18:29:08.484Z,96673.97
2023-02-24T18:31:35.668Z,96745.22
2023-02-24T18:34:02.412Z,96749.97
2023-02-24T18:36:29.109Z,96756.09
2023-02-24T18:38:58.340Z,96753.22
2023-02-24T18:41:25.287Z,96761.75
2023-02-24T18:43:56.000Z,96757.50
2023-02-24T18:46:23.831Z,96679.09
2023-02-24T18:48:51.670Z,96762.31
2023-02-24T18:51:23.751Z,96733.69
2023-02-24T18:53:52.776Z,96760.41
2023-02-24T18:56:23.693Z,96757.59
2023-02-24T18:58:54.948Z,96747.53
2023-02-24T19:01:28.969Z,96756.97
2023-02-24T19:03:56.735Z,96646.09
2023-02-24T19:06:24.876Z,96750.66
2023-02-24T19:09:07.226Z,96753.72
2023-02-24T19:11:34.341Z,96705.69
2023-02-24T19:14:00.967Z,96749.41
2023-02-24T19:16:28.526Z,96760.41
2023-02-24T19:18:57.248Z,96750.72
2023-02-24T19:21:26.494Z,96742.22
2023-02-24T19:23:53.766Z,96738.41
2023-02-24T19:26:24.226Z,96717.59
2023-02-24T19:28:52.529Z,96715.06
2023-02-24T19:31:23.056Z,96714.31
2023-02-24T19:33:54.301Z,96713.84
2023-02-24T19:36:22.498Z,96716.47
2023-02-24T19:38:49.818Z,96692.28
2023-02-24T19:41:16.519Z,96709.41
2023-02-24T19:43:45.657Z,96661.09
2023-02-24T19:46:13.882Z,96722.94
2023-02-24T19:48:41.356Z,96662.53
2023-02-24T19:51:27.046Z,96717.19
2023-02-24T19:53:55.809Z,96713.22
2023-02-24T19:56:27.767Z,96720.31
2023-02-24T19:58:56.438Z,96707.91
2023-02-24T20:01:24.498Z,96683.00
2023-02-24T20:03:57.557Z,96709.59
2023-02-24T20:06:31.856Z,96706.38
2023-02-24T20:09:00.300Z,96639.59
2023-02-24T20:11:29.099Z,96702.81
2023-02-24T20:13:59.632Z,96716.47
2023-02-24T20:16:27.750Z,96697.25
2023-02-24T20:18:55.272Z,96706.44
2023-02-24T20:21:32.670Z,96703.47
2023-02-24T20:24:04.950Z,96704.22
2023-02-24T20:26:35.450Z,96707.03
2023-02-24T20:29:02.700Z,96676.22
2023-02-24T20:31:30.172Z,96698.41
2023-02-24T20:33:57.034Z,96712.44
2023-02-24T20:36:28.402Z,96711.81
2023-02-24T20:38:57.696Z,96684.53
2023-02-24T20:41:24.846Z,96720.09
2023-02-24T20:43:51.547Z,96722.56
2023-02-24T20:46:20.354Z,96721.53
2023-02-24T20:48:47.280Z,96680.81
2023-02-24T20:51:13.985Z,96706.78
2023-02-24T20:53:54.589Z,96712.72
2023-02-24T20:56:23.675Z,96712.78
2023-02-24T20:58:53.638Z,96696.38
2023-02-24T21:01:21.121Z,96714.94
2023-02-24T21:03:48.446Z,96705.66
2023-02-24T21:06:17.122Z,96689.38
2023-02-24T21:08:44.432Z,96714.03
2023-02-24T21:11:12.774Z,96711.59
2023-02-24T21:13:41.045Z,96717.38
2023-02-24T21:16:08.599Z,96724.47
2023-02-24T21:18:35.926Z,96727.53
2023-02-24T21:21:02.575Z,96728.28
2023-02-24T21:23:29.188Z,96693.66
2023-02-24T21:25:55.846Z,96720.59
2023-02-24T21:28:23.150Z,96726.31
2023-02-24T21:30:50.408Z,96714.47
2023-02-24T21:33:19.217Z,96732.31
2023-02-24T21:36:06.653Z,96734.06
2023-02-24T21:38:34.202Z,96721.69
2023-02-24T21:41:08.838Z,96723.72
2023-02-24T21:43:35.546Z,96690.91
2023-02-24T21:46:03.496Z,96728.56
2023-02-24T21:48:30.261Z,96737.88
2023-02-24T21:50:58.611Z,96732.66
2023-02-24T21:53:26.401Z,96730.31
2023-02-24T21:56:23.866Z,96733.47
2023-02-24T21:58:53.164Z,96742.66
2023-02-24T22:01:25.596Z,96734.69
2023-02-24T22:03:58.768Z,96742.09
2023-02-24T22:06:31.338Z,96738.78
2023-02-24T22:09:00.186Z,96713.97
2023-02-24T22:11:40.973Z,96720.66
2023-02-24T22:14:11.655Z,96704.22
2023-02-24T22:16:42.429Z,96722.28
2023-02-24T22:19:20.730Z,96724.53
2023-02-24T22:21:53.948Z,96726.50
2023-02-24T22:24:23.606Z,96727.47
2023-02-24T22:26:53.385Z,96723.09
2023-02-24T22:29:29.373Z,96713.63
2023-02-24T22:31:58.029Z,96701.19
2023-02-24T22:34:32.941Z,96733.84
2023-02-24T22:37:01.070Z,96730.47
2023-02-24T22:39:29.887Z,96741.88
2023-02-24T22:42:04.369Z,96718.97
2023-02-24T22:44:42.821Z,96745.47
2023-02-24T22:47:14.494Z,96748.13
2023-02-24T22:49:43.123Z,96753.22
2023-02-24T22:52:17.403Z,96756.06
2023-02-24T22:54:47.951Z,96737.31
2023-02-24T22:57:17.430Z,96759.34
2023-02-24T22:59:47.807Z,96754.44
2023-02-24T23:02:16.033Z,96758.78
2023-02-24T23:04:43.332Z,96753.78
2023-02-24T23:07:10.779Z,96749.31
2023-02-24T23:09:37.398Z,96752.06
2023-02-24T23:12:04.420Z,96738.28
2023-02-24T23:14:31.378Z,96757.44
2023-02-24T23:16:59.029Z,96751.13
2023-02-24T23:19:38.425Z,96748.00
2023-02-24T23:22:06.653Z,96730.78
2023-02-24T23:24:33.401Z,96729.19
2023-02-24T23:27:00.285Z,96750.13
2023-02-24T23:29:27.338Z,96751.84
2023-02-24T23:31:54.269Z,96752.09
2023-02-24T23:34:21.130Z,96751.75
2023-02-24T23:36:48.046Z,96766.53
2023-02-24T23:39:18.145Z,96741.84
2023-02-24T23:41:45.310Z,96720.16
2023-02-24T23:44:11.964Z,96745.09
2023-02-24T23:46:38.609Z,96739.16
2023-02-24T23:49:06.383Z,96680.19
2023-02-24T23:51:47.080Z,96731.72
2023-02-24T23:54:15.619Z,96742.09
2023-02-24T23:56:42.239Z,96746.50
2023-02-24T23:59:08.984Z,96742.66
